Airfield :
LOGIN :

Register | Disclaimer

   EN    FR    IT 

 










Legend :    VFR   Marginal VFR   IFR   Intensive IFR   Very Intensive IFR
Visi :
Ceiling :
>= 8 km
>= 3000ft
5 to 8 km
1000 to 3000 ft
1500m to 5 km
500 to 1000 ft
800 to 1500m
200 to 500 ft
< 800m
< 200 ft
Symbols :   Thunderstorms  Fog  Heavy snow  Heavy precipitations  Wind > 20 kt
SIGMETs :     Misc.  Thunderstorms  Icing  Turbulence  Mountain Waves  Volcanic Ashes






- Airport Elevation : 13 ft
- IATA code : OST


EBOS - Oostend bruges Int.

CURRENT METAR :
  • 171750Z 29016KT 9999 FEW028 SCT040 07/02 Q1017 TEMPO 27020G30KT

EXPIRED METARs :
  • 171720Z 28020KT 9999 FEW028 SCT040 08/02 Q1017 TEMPO 27020G30KT
  • 171650Z 25020KT 9999 FEW031 08/04 Q1016 TEMPO 23020G30KT
  • 171620Z 25021KT 9999 FEW025 08/04 Q1015 TEMPO 23023G33KT
  • 171550Z 25022KT 9999 FEW025 08/04 Q1015 TEMPO 23023G33KT
  • 171520Z 25021KT 9999 FEW025 08/04 Q1014 TEMPO 23023G33KT

TAF TAF EBOS
Valid from the 17 at 12:00 until the 18 at 18:00 UTC


171120Z 1712/1818 22013KT 9999 FEW015 BKN020
TEMPO 1712/1720 25024G35KT 3500 SHRAGS BKN014CB
PROB40
TEMPO 1720/1805 24015G25KT 4500 SHRA BKN014CB
BECMG 1806/1808 30014KT



MET'MAP, your aeronautical weather chart ! - Copyright ORBIFLY December 2007 - Disclaimer

ORBIFLY MET'MAP TEAM :

Programming & Development : Alexandra Zaïnal
Concept & original design : Baudouin d'Aumeries
Assistance for programming : Marc-Olivier Méhu
Technical & hardware support : Manuel Goepfert

Contact : metmap@orbifly.com




SOURCES & CREDITS :

   NOAA